sensor_id;sensor_type;location;lat;lon;timestamp;pressure;altitude;pressure_sealevel;temperature;humidity
5284;BME280;15377;48.540;9.268;2023-06-26T00:01:14;97461.25;;;17.38;100.00
5284;BME280;15377;48.540;9.268;2023-06-26T00:03:39;97461.28;;;17.27;100.00
5284;BME280;15377;48.540;9.268;2023-06-26T00:06:05;97456.16;;;16.96;100.00
5284;BME280;15377;48.540;9.268;2023-06-26T00:08:30;97449.16;;;16.73;100.00
5284;BME280;15377;48.540;9.268;2023-06-26T00:10:56;97450.91;;;16.76;100.00
5284;BME280;15377;48.540;9.268;2023-06-26T00:13:23;97469.84;;;16.83;100.00
5284;BME280;15377;48.540;9.268;2023-06-26T00:15:50;97472.38;;;16.81;100.00
5284;BME280;15377;48.540;9.268;2023-06-26T00:18:15;97465.88;;;16.68;100.00
5284;BME280;15377;48.540;9.268;2023-06-26T00:20:41;97455.78;;;16.59;100.00
5284;BME280;15377;48.540;9.268;2023-06-26T00:23:06;97466.66;;;16.57;100.00
5284;BME280;15377;48.540;9.268;2023-06-26T00:25:33;97465.66;;;16.49;100.00
5284;BME280;15377;48.540;9.268;2023-06-26T00:27:58;97469.22;;;16.44;100.00
5284;BME280;15377;48.540;9.268;2023-06-26T00:30:24;97452.28;;;16.48;100.00
5284;BME280;15377;48.540;9.268;2023-06-26T00:32:49;97464.78;;;16.82;100.00
5284;BME280;15377;48.540;9.268;2023-06-26T00:35:16;97456.97;;;16.75;100.00
5284;BME280;15377;48.540;9.268;2023-06-26T00:37:41;97467.84;;;16.73;100.00
5284;BME280;15377;48.540;9.268;2023-06-26T00:40:07;97469.63;;;16.70;100.00
5284;BME280;15377;48.540;9.268;2023-06-26T00:42:32;97465.16;;;16.56;100.00
5284;BME280;15377;48.540;9.268;2023-06-26T00:44:58;97470.13;;;16.74;100.00
5284;BME280;15377;48.540;9.268;2023-06-26T00:47:23;97466.72;;;16.98;100.00
5284;BME280;15377;48.540;9.268;2023-06-26T00:49:49;97466.44;;;17.12;100.00
5284;BME280;15377;48.540;9.268;2023-06-26T00:52:15;97464.84;;;17.22;100.00
5284;BME280;15377;48.540;9.268;2023-06-26T00:54:42;97468.34;;;17.28;100.00
5284;BME280;15377;48.540;9.268;2023-06-26T00:57:07;97470.69;;;17.19;100.00
5284;BME280;15377;48.540;9.268;2023-06-26T00:59:33;97461.94;;;16.98;100.00
5284;BME280;15377;48.540;9.268;2023-06-26T01:01:59;97458.75;;;16.78;100.00
5284;BME280;15377;48.540;9.268;2023-06-26T01:04:24;97463.97;;;16.92;100.00
5284;BME280;15377;48.540;9.268;2023-06-26T01:06:53;97461.59;;;17.13;100.00
5284;BME280;15377;48.540;9.268;2023-06-26T01:09:20;97435.91;;;16.96;100.00
5284;BME280;15377;48.540;9.268;2023-06-26T01:11:46;97461.38;;;17.11;100.00
5284;BME280;15377;48.540;9.268;2023-06-26T01:14:12;97452.47;;;17.18;100.00
5284;BME280;15377;48.540;9.268;2023-06-26T01:16:39;97458.03;;;17.18;100.00
5284;BME280;15377;48.540;9.268;2023-06-26T01:19:24;97450.72;;;17.15;100.00
5284;BME280;15377;48.540;9.268;2023-06-26T01:21:58;97461.09;;;17.14;100.00
5284;BME280;15377;48.540;9.268;2023-06-26T01:24:32;97460.19;;;16.90;100.00
5284;BME280;15377;48.540;9.268;2023-06-26T01:26:59;97462.69;;;16.99;100.00
5284;BME280;15377;48.540;9.268;2023-06-26T01:29:27;97447.81;;;16.96;100.00
5284;BME280;15377;48.540;9.268;2023-06-26T01:31:53;97455.81;;;17.11;100.00
5284;BME280;15377;48.540;9.268;2023-06-26T01:34:19;97448.69;;;17.15;100.00
5284;BME280;15377;48.540;9.268;2023-06-26T01:36:45;97451.06;;;17.00;100.00
5284;BME280;15377;48.540;9.268;2023-06-26T01:39:15;97450.63;;;16.85;100.00
5284;BME280;15377;48.540;9.268;2023-06-26T01:41:41;97452.19;;;16.75;100.00
5284;BME280;15377;48.540;9.268;2023-06-26T01:54:33;97438.28;;;16.75;100.00
5284;BME280;15377;48.540;9.268;2023-06-26T01:57:04;97438.91;;;16.35;100.00
5284;BME280;15377;48.540;9.268;2023-06-26T01:59:31;97440.72;;;16.11;100.00
5284;BME280;15377;48.540;9.268;2023-06-26T02:01:57;97440.03;;;15.77;100.00
5284;BME280;15377;48.540;9.268;2023-06-26T02:04:22;97437.25;;;15.55;100.00
5284;BME280;15377;48.540;9.268;2023-06-26T02:06:47;97442.03;;;15.38;100.00
5284;BME280;15377;48.540;9.268;2023-06-26T02:09:13;97433.38;;;15.25;100.00
5284;BME280;15377;48.540;9.268;2023-06-26T02:11:38;97442.72;;;15.22;100.00
5284;BME280;15377;48.540;9.268;2023-06-26T02:14:03;97439.94;;;15.22;100.00
5284;BME280;15377;48.540;9.268;2023-06-26T02:16:29;97437.16;;;15.17;100.00
5284;BME280;15377;48.540;9.268;2023-06-26T02:18:54;97441.72;;;15.20;100.00
5284;BME280;15377;48.540;9.268;2023-06-26T02:21:20;97441.69;;;15.14;100.00
5284;BME280;15377;48.540;9.268;2023-06-26T02:23:45;97430.31;;;15.01;100.00
5284;BME280;15377;48.540;9.268;2023-06-26T02:26:10;97435.88;;;15.01;100.00
5284;BME280;15377;48.540;9.268;2023-06-26T02:28:36;97445.69;;;14.97;100.00
5284;BME280;15377;48.540;9.268;2023-06-26T02:31:01;97442.66;;;14.95;100.00
5284;BME280;15377;48.540;9.268;2023-06-26T02:33:27;97440.38;;;14.88;100.00
5284;BME280;15377;48.540;9.268;2023-06-26T02:35:52;97440.06;;;14.80;100.00
5284;BME280;15377;48.540;9.268;2023-06-26T02:38:18;97408.25;;;14.54;100.00
5284;BME280;15377;48.540;9.268;2023-06-26T02:40:43;97443.56;;;14.70;100.00
5284;BME280;15377;48.540;9.268;2023-06-26T02:43:09;97449.34;;;14.67;100.00
5284;BME280;15377;48.540;9.268;2023-06-26T02:45:34;97456.59;;;14.59;100.00
5284;BME280;15377;48.540;9.268;2023-06-26T02:47:59;97447.25;;;14.51;100.00
5284;BME280;15377;48.540;9.268;2023-06-26T02:50:25;97425.53;;;14.33;100.00
5284;BME280;15377;48.540;9.268;2023-06-26T02:52:50;97432.56;;;14.34;100.00
5284;BME280;15377;48.540;9.268;2023-06-26T02:55:18;97445.94;;;14.35;100.00
5284;BME280;15377;48.540;9.268;2023-06-26T02:57:44;97455.97;;;14.33;100.00
5284;BME280;15377;48.540;9.268;2023-06-26T03:00:10;97450.69;;;14.35;100.00
5284;BME280;15377;48.540;9.268;2023-06-26T03:02:36;97440.63;;;14.32;100.00
5284;BME280;15377;48.540;9.268;2023-06-26T03:05:02;97455.72;;;14.31;100.00
5284;BME280;15377;48.540;9.268;2023-06-26T03:07:28;97450.09;;;14.20;100.00
5284;BME280;15377;48.540;9.268;2023-06-26T03:09:53;97417.47;;;13.93;100.00
5284;BME280;15377;48.540;9.268;2023-06-26T03:12:18;97464.44;;;14.18;100.00
5284;BME280;15377;48.540;9.268;2023-06-26T03:14:44;97447.50;;;14.11;100.00
5284;BME280;15377;48.540;9.268;2023-06-26T03:17:09;97456.59;;;14.17;100.00
5284;BME280;15377;48.540;9.268;2023-06-26T03:19:34;97455.41;;;14.23;100.00
5284;BME280;15377;48.540;9.268;2023-06-26T03:22:00;97439.13;;;14.31;100.00
5284;BME280;15377;48.540;9.268;2023-06-26T03:24:25;97444.75;;;14.53;100.00
5284;BME280;15377;48.540;9.268;2023-06-26T03:26:50;97435.75;;;14.69;100.00
5284;BME280;15377;48.540;9.268;2023-06-26T03:29:16;97436.84;;;14.98;100.00
5284;BME280;15377;48.540;9.268;2023-06-26T03:31:42;97452.09;;;15.41;100.00
5284;BME280;15377;48.540;9.268;2023-06-26T03:34:07;97452.59;;;15.67;100.00
5284;BME280;15377;48.540;9.268;2023-06-26T03:36:33;97453.38;;;15.90;100.00
5284;BME280;15377;48.540;9.268;2023-06-26T03:38:58;97453.59;;;16.08;100.00
5284;BME280;15377;48.540;9.268;2023-06-26T03:41:23;97454.59;;;16.27;100.00
5284;BME280;15377;48.540;9.268;2023-06-26T03:43:49;97466.66;;;16.46;100.00
5284;BME280;15377;48.540;9.268;2023-06-26T03:46:14;97457.06;;;16.58;100.00
5284;BME280;15377;48.540;9.268;2023-06-26T03:48:40;97467.84;;;16.73;100.00
5284;BME280;15377;48.540;9.268;2023-06-26T03:51:06;97460.53;;;16.75;100.00
5284;BME280;15377;48.540;9.268;2023-06-26T03:53:32;97467.81;;;16.84;100.00
5284;BME280;15377;48.540;9.268;2023-06-26T03:55:57;97466.28;;;16.88;100.00
5284;BME280;15377;48.540;9.268;2023-06-26T03:58:23;97471.56;;;16.97;100.00
5284;BME280;15377;48.540;9.268;2023-06-26T04:00:48;97474.25;;;17.08;100.00
5284;BME280;15377;48.540;9.268;2023-06-26T04:03:13;97477.28;;;17.16;100.00
5284;BME280;15377;48.540;9.268;2023-06-26T04:05:39;97472.94;;;17.20;100.00
5284;BME280;15377;48.540;9.268;2023-06-26T04:08:04;97478.72;;;17.28;100.00
5284;BME280;15377;48.540;9.268;2023-06-26T04:10:29;97471.84;;;17.34;100.00
5284;BME280;15377;48.540;9.268;2023-06-26T04:12:55;97480.94;;;17.40;100.00
5284;BME280;15377;48.540;9.268;2023-06-26T04:15:20;97459.72;;;17.37;100.00
5284;BME280;15377;48.540;9.268;2023-06-26T04:17:45;97469.34;;;17.31;100.00
5284;BME280;15377;48.540;9.268;2023-06-26T04:20:11;97482.56;;;17.19;100.00
5284;BME280;15377;48.540;9.268;2023-06-26T04:22:36;97476.56;;;17.04;100.00
5284;BME280;15377;48.540;9.268;2023-06-26T04:25:03;97473.00;;;17.09;100.00
5284;BME280;15377;48.540;9.268;2023-06-26T04:27:28;97470.94;;;17.15;100.00
5284;BME280;15377;48.540;9.268;2023-06-26T04:29:54;97472.66;;;17.29;100.00
5284;BME280;15377;48.540;9.268;2023-06-26T04:32:19;97470.31;;;17.44;100.00
5284;BME280;15377;48.540;9.268;2023-06-26T04:34:45;97487.97;;;17.52;100.00
5284;BME280;15377;48.540;9.268;2023-06-26T04:37:10;97472.00;;;17.53;100.00
5284;BME280;15377;48.540;9.268;2023-06-26T04:39:36;97467.44;;;17.55;100.00
5284;BME280;15377;48.540;9.268;2023-06-26T04:42:03;97483.06;;;17.64;100.00
5284;BME280;15377;48.540;9.268;2023-06-26T04:44:28;97473.19;;;17.68;100.00
5284;BME280;15377;48.540;9.268;2023-06-26T04:46:54;97476.13;;;17.76;100.00
5284;BME280;15377;48.540;9.268;2023-06-26T04:49:19;97464.72;;;17.79;100.00
5284;BME280;15377;48.540;9.268;2023-06-26T04:51:45;97471.00;;;17.85;100.00
5284;BME280;15377;48.540;9.268;2023-06-26T04:54:10;97471.97;;;17.93;100.00
5284;BME280;15377;48.540;9.268;2023-06-26T04:56:36;97472.56;;;18.10;100.00
5284;BME280;15377;48.540;9.268;2023-06-26T04:59:02;97480.81;;;18.21;100.00
5284;BME280;15377;48.540;9.268;2023-06-26T05:01:28;97477.44;;;18.28;100.00
5284;BME280;15377;48.540;9.268;2023-06-26T05:03:58;97468.25;;;18.39;100.00
5284;BME280;15377;48.540;9.268;2023-06-26T05:06:24;97469.38;;;18.54;100.00
5284;BME280;15377;48.540;9.268;2023-06-26T05:08:49;97467.91;;;18.72;100.00
5284;BME280;15377;48.540;9.268;2023-06-26T05:11:15;97461.97;;;18.81;100.00
5284;BME280;15377;48.540;9.268;2023-06-26T05:13:40;97463.25;;;18.98;100.00
5284;BME280;15377;48.540;9.268;2023-06-26T05:16:06;97446.44;;;19.03;100.00
5284;BME280;15377;48.540;9.268;2023-06-26T05:18:34;97449.34;;;19.16;100.00
5284;BME280;15377;48.540;9.268;2023-06-26T05:21:00;97460.75;;;19.37;100.00
5284;BME280;15377;48.540;9.268;2023-06-26T05:23:25;97462.09;;;19.49;100.00
5284;BME280;15377;48.540;9.268;2023-06-26T05:25:52;97459.59;;;19.64;100.00
5284;BME280;15377;48.540;9.268;2023-06-26T05:28:18;97451.84;;;19.70;100.00
5284;BME280;15377;48.540;9.268;2023-06-26T05:30:43;97463.31;;;19.85;100.00
5284;BME280;15377;48.540;9.268;2023-06-26T05:33:11;97465.16;;;19.95;100.00
5284;BME280;15377;48.540;9.268;2023-06-26T05:35:37;97457.97;;;20.00;100.00
5284;BME280;15377;48.540;9.268;2023-06-26T05:38:03;97453.66;;;20.17;100.00
5284;BME280;15377;48.540;9.268;2023-06-26T05:40:28;97443.03;;;20.29;100.00
5284;BME280;15377;48.540;9.268;2023-06-26T05:42:54;97469.59;;;20.48;100.00
5284;BME280;15377;48.540;9.268;2023-06-26T05:45:20;97463.91;;;20.54;100.00
5284;BME280;15377;48.540;9.268;2023-06-26T05:47:45;97460.66;;;20.63;100.00
5284;BME280;15377;48.540;9.268;2023-06-26T05:50:12;97470.38;;;20.75;100.00
5284;BME280;15377;48.540;9.268;2023-06-26T05:52:38;97465.63;;;20.70;100.00
5284;BME280;15377;48.540;9.268;2023-06-26T05:55:04;97464.53;;;20.73;100.00
5284;BME280;15377;48.540;9.268;2023-06-26T05:57:30;97477.25;;;20.74;100.00
5284;BME280;15377;48.540;9.268;2023-06-26T05:59:56;97478.69;;;20.93;100.00
5284;BME280;15377;48.540;9.268;2023-06-26T06:02:22;97472.44;;;20.87;100.00
5284;BME280;15377;48.540;9.268;2023-06-26T06:04:47;97473.69;;;20.99;100.00
5284;BME280;15377;48.540;9.268;2023-06-26T06:07:13;97464.00;;;21.13;100.00
5284;BME280;15377;48.540;9.268;2023-06-26T06:09:39;97468.16;;;21.33;100.00
5284;BME280;15377;48.540;9.268;2023-06-26T06:12:05;97473.72;;;21.46;100.00
5284;BME280;15377;48.540;9.268;2023-06-26T06:14:34;97459.34;;;21.62;100.00
5284;BME280;15377;48.540;9.268;2023-06-26T06:17:00;97466.28;;;21.82;100.00
5284;BME280;15377;48.540;9.268;2023-06-26T06:19:25;97454.47;;;21.96;100.00
5284;BME280;15377;48.540;9.268;2023-06-26T06:21:51;97471.47;;;22.19;100.00
5284;BME280;15377;48.540;9.268;2023-06-26T06:24:17;97466.69;;;22.27;100.00
5284;BME280;15377;48.540;9.268;2023-06-26T06:26:42;97456.00;;;22.46;100.00
5284;BME280;15377;48.540;9.268;2023-06-26T06:29:08;97469.25;;;22.66;100.00
5284;BME280;15377;48.540;9.268;2023-06-26T06:31:33;97461.13;;;22.83;100.00
5284;BME280;15377;48.540;9.268;2023-06-26T06:33:58;97452.19;;;22.92;100.00
5284;BME280;15377;48.540;9.268;2023-06-26T06:36:24;97472.50;;;23.05;100.00
5284;BME280;15377;48.540;9.268;2023-06-26T06:38:49;97461.28;;;23.12;100.00
5284;BME280;15377;48.540;9.268;2023-06-26T06:41:14;97463.06;;;23.30;100.00
5284;BME280;15377;48.540;9.268;2023-06-26T06:43:40;97464.25;;;23.42;100.00
5284;BME280;15377;48.540;9.268;2023-06-26T06:46:06;97458.88;;;23.59;100.00
5284;BME280;15377;48.540;9.268;2023-06-26T06:48:31;97468.81;;;23.68;100.00
5284;BME280;15377;48.540;9.268;2023-06-26T06:50:57;97473.28;;;23.63;100.00
5284;BME280;15377;48.540;9.268;2023-06-26T06:53:22;97470.91;;;23.82;100.00
5284;BME280;15377;48.540;9.268;2023-06-26T06:55:48;97467.75;;;23.93;100.00
5284;BME280;15377;48.540;9.268;2023-06-26T06:58:14;97462.72;;;24.14;100.00
5284;BME280;15377;48.540;9.268;2023-06-26T07:00:41;97455.97;;;24.17;100.00
5284;BME280;15377;48.540;9.268;2023-06-26T07:03:07;97463.09;;;24.33;100.00
5284;BME280;15377;48.540;9.268;2023-06-26T07:05:32;97456.34;;;24.51;100.00
5284;BME280;15377;48.540;9.268;2023-06-26T07:07:57;97464.97;;;24.83;100.00
5284;BME280;15377;48.540;9.268;2023-06-26T07:10:23;97459.81;;;25.04;100.00
5284;BME280;15377;48.540;9.268;2023-06-26T07:12:48;97447.00;;;25.18;100.00
5284;BME280;15377;48.540;9.268;2023-06-26T07:15:13;97449.78;;;25.33;100.00
5284;BME280;15377;48.540;9.268;2023-06-26T07:17:39;97453.88;;;25.40;100.00
5284;BME280;15377;48.540;9.268;2023-06-26T07:20:05;97451.81;;;25.40;100.00
5284;BME280;15377;48.540;9.268;2023-06-26T07:22:32;97456.06;;;25.56;100.00
5284;BME280;15377;48.540;9.268;2023-06-26T07:24:57;97454.44;;;25.78;100.00
5284;BME280;15377;48.540;9.268;2023-06-26T07:27:23;97458.91;;;25.88;100.00
5284;BME280;15377;48.540;9.268;2023-06-26T07:29:48;97461.81;;;26.05;97.48
5284;BME280;15377;48.540;9.268;2023-06-26T07:32:13;97463.19;;;26.21;97.12
5284;BME280;15377;48.540;9.268;2023-06-26T07:34:39;97467.16;;;26.43;98.22
5284;BME280;15377;48.540;9.268;2023-06-26T07:37:04;97460.81;;;26.59;98.46
5284;BME280;15377;48.540;9.268;2023-06-26T07:39:30;97458.00;;;26.59;96.09
5284;BME280;15377;48.540;9.268;2023-06-26T07:41:55;97465.81;;;26.68;95.95
5284;BME280;15377;48.540;9.268;2023-06-26T07:44:21;97462.06;;;26.66;93.66
5284;BME280;15377;48.540;9.268;2023-06-26T07:46:47;97466.66;;;26.78;93.81
5284;BME280;15377;48.540;9.268;2023-06-26T07:49:13;97482.97;;;26.87;91.91
5284;BME280;15377;48.540;9.268;2023-06-26T07:51:38;97465.16;;;26.94;89.14
5284;BME280;15377;48.540;9.268;2023-06-26T07:54:03;97473.47;;;27.09;88.53
5284;BME280;15377;48.540;9.268;2023-06-26T07:56:29;97464.97;;;27.17;88.10
5284;BME280;15377;48.540;9.268;2023-06-26T07:58:54;97478.84;;;27.22;86.94
5284;BME280;15377;48.540;9.268;2023-06-26T08:01:23;97483.25;;;27.33;86.10
5284;BME280;15377;48.540;9.268;2023-06-26T08:03:48;97475.34;;;27.31;85.14
5284;BME280;15377;48.540;9.268;2023-06-26T08:06:13;97479.06;;;27.34;83.22
5284;BME280;15377;48.540;9.268;2023-06-26T08:08:39;97469.84;;;27.50;83.83
5284;BME280;15377;48.540;9.268;2023-06-26T08:11:05;97479.78;;;27.68;83.44
5284;BME280;15377;48.540;9.268;2023-06-26T08:13:30;97467.38;;;27.80;84.26
5284;BME280;15377;48.540;9.268;2023-06-26T08:15:55;97470.34;;;27.82;80.49
5284;BME280;15377;48.540;9.268;2023-06-26T08:18:21;97469.22;;;27.95;81.00
5284;BME280;15377;48.540;9.268;2023-06-26T08:20:46;97464.09;;;28.10;80.57
5284;BME280;15377;48.540;9.268;2023-06-26T08:23:11;97455.63;;;28.10;77.66
5284;BME280;15377;48.540;9.268;2023-06-26T08:25:37;97463.13;;;28.25;76.24
5284;BME280;15377;48.540;9.268;2023-06-26T08:28:02;97459.94;;;28.11;75.24
5284;BME280;15377;48.540;9.268;2023-06-26T08:30:28;97456.53;;;28.22;77.00
5284;BME280;15377;48.540;9.268;2023-06-26T08:32:56;97446.75;;;28.33;75.82
5284;BME280;15377;48.540;9.268;2023-06-26T08:35:22;97448.25;;;28.34;73.18
5284;BME280;15377;48.540;9.268;2023-06-26T08:37:54;97438.75;;;28.39;73.97
5284;BME280;15377;48.540;9.268;2023-06-26T08:40:21;97450.88;;;28.58;74.53
5284;BME280;15377;48.540;9.268;2023-06-26T08:42:46;97445.69;;;28.64;73.72
5284;BME280;15377;48.540;9.268;2023-06-26T08:45:12;97413.31;;;28.48;74.54
5284;BME280;15377;48.540;9.268;2023-06-26T08:47:38;97455.25;;;28.88;73.45
5284;BME280;15377;48.540;9.268;2023-06-26T08:50:14;97450.53;;;29.00;73.00
5284;BME280;15377;48.540;9.268;2023-06-26T08:55:38;97450.84;;;29.23;74.19
5284;BME280;15377;48.540;9.268;2023-06-26T08:58:04;97446.34;;;29.10;68.64
5284;BME280;15377;48.540;9.268;2023-06-26T09:00:30;97453.06;;;29.24;69.31
5284;BME280;15377;48.540;9.268;2023-06-26T09:02:56;97451.25;;;29.29;68.49
5284;BME280;15377;48.540;9.268;2023-06-26T09:05:21;97441.72;;;29.34;67.49
5284;BME280;15377;48.540;9.268;2023-06-26T09:07:47;97447.66;;;29.47;67.68
5284;BME280;15377;48.540;9.268;2023-06-26T09:10:12;97454.25;;;29.50;66.10
5284;BME280;15377;48.540;9.268;2023-06-26T09:12:38;97437.38;;;29.71;67.48
5284;BME280;15377;48.540;9.268;2023-06-26T09:15:05;97427.16;;;29.87;67.03
5284;BME280;15377;48.540;9.268;2023-06-26T09:17:36;97440.84;;;30.00;64.30
5284;BME280;15377;48.540;9.268;2023-06-26T09:20:03;97438.50;;;29.87;61.57
5284;BME280;15377;48.540;9.268;2023-06-26T09:22:32;97428.19;;;29.91;62.54
5284;BME280;15377;48.540;9.268;2023-06-26T09:24:58;97433.13;;;29.91;62.81
5284;BME280;15377;48.540;9.268;2023-06-26T09:27:24;97412.19;;;29.96;62.18
5284;BME280;15377;48.540;9.268;2023-06-26T09:29:50;97429.16;;;30.15;61.55
5284;BME280;15377;48.540;9.268;2023-06-26T09:32:15;97436.31;;;30.16;60.68
5284;BME280;15377;48.540;9.268;2023-06-26T09:34:42;97425.59;;;30.45;61.00
5284;BME280;15377;48.540;9.268;2023-06-26T09:37:11;97417.13;;;30.66;60.85
5284;BME280;15377;48.540;9.268;2023-06-26T09:39:37;97424.50;;;30.80;59.91
5284;BME280;15377;48.540;9.268;2023-06-26T09:42:02;97414.41;;;30.89;59.84
5284;BME280;15377;48.540;9.268;2023-06-26T09:44:30;97425.69;;;30.98;55.55
5284;BME280;15377;48.540;9.268;2023-06-26T09:46:56;97412.91;;;30.88;54.76
5284;BME280;15377;48.540;9.268;2023-06-26T09:49:23;97424.50;;;30.80;56.80
5284;BME280;15377;48.540;9.268;2023-06-26T09:51:49;97418.34;;;30.84;55.18
5284;BME280;15377;48.540;9.268;2023-06-26T09:54:16;97408.31;;;31.04;53.20
5284;BME280;15377;48.540;9.268;2023-06-26T09:56:45;97409.13;;;31.16;53.99
5284;BME280;15377;48.540;9.268;2023-06-26T09:59:10;97400.81;;;31.41;52.33
5284;BME280;15377;48.540;9.268;2023-06-26T10:01:41;97402.63;;;31.69;53.23
5284;BME280;15377;48.540;9.268;2023-06-26T10:04:07;97400.50;;;32.24;51.86
5284;BME280;15377;48.540;9.268;2023-06-26T10:06:35;97401.94;;;32.60;50.98
5284;BME280;15377;48.540;9.268;2023-06-26T10:09:02;97394.09;;;32.83;48.61
5284;BME280;15377;48.540;9.268;2023-06-26T10:11:34;97396.19;;;32.94;48.64
5284;BME280;15377;48.540;9.268;2023-06-26T10:14:03;97401.03;;;33.28;50.38
5284;BME280;15377;48.540;9.268;2023-06-26T10:16:31;97403.28;;;33.55;46.38
5284;BME280;15377;48.540;9.268;2023-06-26T10:19:01;97405.66;;;34.10;44.92
5284;BME280;15377;48.540;9.268;2023-06-26T10:21:29;97401.38;;;34.90;45.87
5284;BME280;15377;48.540;9.268;2023-06-26T10:23:56;97384.47;;;35.23;40.00
5284;BME280;15377;48.540;9.268;2023-06-26T10:26:23;97398.22;;;35.27;42.03
5284;BME280;15377;48.540;9.268;2023-06-26T10:28:50;97398.81;;;34.29;41.08
5284;BME280;15377;48.540;9.268;2023-06-26T10:31:21;97397.38;;;33.89;42.13
5284;BME280;15377;48.540;9.268;2023-06-26T10:33:49;97388.88;;;34.70;41.61
5284;BME280;15377;48.540;9.268;2023-06-26T10:36:15;97402.06;;;35.91;40.46
5284;BME280;15377;48.540;9.268;2023-06-26T10:39:03;97403.28;;;37.12;37.83
5284;BME280;15377;48.540;9.268;2023-06-26T10:41:39;97397.50;;;38.17;33.92
5284;BME280;15377;48.540;9.268;2023-06-26T10:44:11;97401.59;;;38.49;33.61
5284;BME280;15377;48.540;9.268;2023-06-26T10:47:06;97408.13;;;38.32;33.07
5284;BME280;15377;48.540;9.268;2023-06-26T10:49:31;97396.31;;;38.24;31.00
5284;BME280;15377;48.540;9.268;2023-06-26T10:52:01;97400.41;;;37.99;31.77
5284;BME280;15377;48.540;9.268;2023-06-26T10:54:31;97408.97;;;37.45;30.91
5284;BME280;15377;48.540;9.268;2023-06-26T10:56:57;97403.44;;;37.16;31.87
5284;BME280;15377;48.540;9.268;2023-06-26T10:59:25;97397.66;;;36.66;32.60
5284;BME280;15377;48.540;9.268;2023-06-26T11:02:01;97402.09;;;36.07;31.94
5284;BME280;15377;48.540;9.268;2023-06-26T11:04:47;97412.09;;;35.32;34.84
5284;BME280;15377;48.540;9.268;2023-06-26T11:10:07;97403.75;;;35.52;36.36
5284;BME280;15377;48.540;9.268;2023-06-26T11:12:40;97405.81;;;36.25;33.54
5284;BME280;15377;48.540;9.268;2023-06-26T11:15:14;97402.94;;;36.25;33.12
5284;BME280;15377;48.540;9.268;2023-06-26T11:17:41;97402.03;;;35.60;35.16
5284;BME280;15377;48.540;9.268;2023-06-26T11:20:08;97413.75;;;34.95;36.25
5284;BME280;15377;48.540;9.268;2023-06-26T11:22:35;97411.19;;;33.31;38.36
5284;BME280;15377;48.540;9.268;2023-06-26T11:25:01;97421.53;;;32.77;40.40
5284;BME280;15377;48.540;9.268;2023-06-26T11:27:41;97426.88;;;33.07;41.04
5284;BME280;15377;48.540;9.268;2023-06-26T11:30:08;97426.38;;;33.97;39.55
5284;BME280;15377;48.540;9.268;2023-06-26T11:32:34;97419.28;;;35.33;38.79
5284;BME280;15377;48.540;9.268;2023-06-26T11:35:00;97417.91;;;35.92;37.83
5284;BME280;15377;48.540;9.268;2023-06-26T11:37:26;97429.81;;;35.58;37.08
5284;BME280;15377;48.540;9.268;2023-06-26T11:39:51;97434.50;;;34.41;39.26
5284;BME280;15377;48.540;9.268;2023-06-26T11:42:18;97442.59;;;34.06;41.08
5284;BME280;15377;48.540;9.268;2023-06-26T11:44:44;97435.44;;;35.13;40.04
5284;BME280;15377;48.540;9.268;2023-06-26T11:47:19;97436.84;;;35.99;36.97
5284;BME280;15377;48.540;9.268;2023-06-26T11:49:46;97434.94;;;36.66;37.03
5284;BME280;15377;48.540;9.268;2023-06-26T11:52:12;97434.22;;;36.34;37.18
5284;BME280;15377;48.540;9.268;2023-06-26T11:54:38;97420.22;;;35.96;37.72
5284;BME280;15377;48.540;9.268;2023-06-26T11:57:04;97432.03;;;35.88;38.58
5284;BME280;15377;48.540;9.268;2023-06-26T11:59:37;97439.75;;;36.61;37.28
5284;BME280;15377;48.540;9.268;2023-06-26T12:02:07;97445.91;;;36.09;38.90
5284;BME280;15377;48.540;9.268;2023-06-26T12:04:33;97435.09;;;35.92;38.09
5284;BME280;15377;48.540;9.268;2023-06-26T12:07:00;97443.16;;;36.73;37.17
5284;BME280;15377;48.540;9.268;2023-06-26T12:09:29;97431.72;;;36.42;36.71
5284;BME280;15377;48.540;9.268;2023-06-26T12:11:56;97443.69;;;36.54;35.83
5284;BME280;15377;48.540;9.268;2023-06-26T12:14:22;97445.75;;;36.67;35.68
5284;BME280;15377;48.540;9.268;2023-06-26T12:16:48;97463.78;;;36.54;36.65
5284;BME280;15377;48.540;9.268;2023-06-26T12:19:14;97448.97;;;37.23;35.39
5284;BME280;15377;48.540;9.268;2023-06-26T12:24:07;97455.38;;;36.43;35.89
5284;BME280;15377;48.540;9.268;2023-06-26T12:26:34;97451.88;;;36.60;36.37
5284;BME280;15377;48.540;9.268;2023-06-26T12:29:12;97442.28;;;35.64;36.57
5284;BME280;15377;48.540;9.268;2023-06-26T12:31:42;97451.53;;;35.20;37.40
5284;BME280;15377;48.540;9.268;2023-06-26T12:34:10;97444.97;;;34.23;38.73
5284;BME280;15377;48.540;9.268;2023-06-26T12:36:41;97444.69;;;32.71;41.06
5284;BME280;15377;48.540;9.268;2023-06-26T12:39:09;97453.25;;;32.60;41.42
5284;BME280;15377;48.540;9.268;2023-06-26T12:41:44;97455.72;;;33.61;40.77
5284;BME280;15377;48.540;9.268;2023-06-26T12:44:23;97461.19;;;34.46;40.85
5284;BME280;15377;48.540;9.268;2023-06-26T12:46:57;97455.06;;;34.92;38.73
5284;BME280;15377;48.540;9.268;2023-06-26T12:49:36;97446.53;;;35.63;38.29
5284;BME280;15377;48.540;9.268;2023-06-26T12:52:03;97443.38;;;36.15;37.93
5284;BME280;15377;48.540;9.268;2023-06-26T12:54:30;97439.13;;;35.87;36.79
5284;BME280;15377;48.540;9.268;2023-06-26T12:56:55;97440.94;;;36.41;37.26
5284;BME280;15377;48.540;9.268;2023-06-26T12:59:21;97436.94;;;36.94;36.50
5284;BME280;15377;48.540;9.268;2023-06-26T13:01:47;97442.88;;;37.66;35.93
5284;BME280;15377;48.540;9.268;2023-06-26T13:04:12;97436.78;;;37.40;35.61
5284;BME280;15377;48.540;9.268;2023-06-26T13:06:37;97425.78;;;37.35;35.80
5284;BME280;15377;48.540;9.268;2023-06-26T13:09:03;97420.66;;;38.21;34.83
5284;BME280;15377;48.540;9.268;2023-06-26T13:11:29;97427.75;;;37.30;35.83
5284;BME280;15377;48.540;9.268;2023-06-26T13:13:55;97428.06;;;36.88;36.75
5284;BME280;15377;48.540;9.268;2023-06-26T13:16:20;97418.53;;;36.84;36.92
5284;BME280;15377;48.540;9.268;2023-06-26T13:18:46;97418.28;;;36.00;38.39
5284;BME280;15377;48.540;9.268;2023-06-26T13:21:12;97424.22;;;35.75;39.22